Darstellungsparameter: Aktuell verwendete Einstellungen:
Skalierung der Graphiken ... ?
xyx+y,   Skalierungsfaktor:      Skalierung: Modus: x, Faktor: 1
Darstellungszeitraum ... ?
Vom - - bis: - -   Zeitraum: 01.08.2011 - 01.08.2011
Min/Max/Avg-Anzeige ... ?
Zeige MMA aktuell
Zeige MMA Monat
Zeige MMA alles
Zeige --A aktuell
Zeige --A Monat
Zeige --A alles
Keine MMA-Anzeige
MMA:
Average (ber die Originaldaten)
MMA-Basis: 01.08.2011 - 01.08.2011
Quicknavigation für Darstellung... ?
Tage:      1T, 2T, 3T, 5T -1T -2T -3T -5T +1T +2T +3T +5T
Wochen: 1W, 2W, 3W -1W -2W -3W +1W +2W +3W
Monate: 1M, 3M, 6M -1M -3M -6M +1M +3M +6M
Jahre:    1J, 3J, 5J, 10J -1J -3J -5J -10J +1J +3J +5J +10J
Nutze für die Darstellung ... ?
Originaldaten oder Mittelwerte auf ...
Stundenbasis Tagesbasis Wochenbasis
Monatsbasis Jahresbasis      Datenbasis: Original-Daten
Darstellen als:
Statistik (Auto) Statistik J:M      Darstellung:
Zur Graphik,    zurück zur Übersicht aller Sensoren.
 
Tabellarische Datenbersicht: ?
 
Sensor: Nr:Datum:Temp:Abs-Feuchte:Windchill:Wind:
Aussen-T/F 1 01-08-2011 00:03:03 10.4 C 7.61 g/m*3 10.4 C 0 km/h
2 01-08-2011 00:15:03 10 C 7.52 g/m*3 10 C 0 km/h
3 01-08-2011 00:27:03 9.7 C 7.56 g/m*3 9.7 C 0 km/h
4 01-08-2011 00:39:03 9.8 C 7.79 g/m*3 9.8 C 0 km/h
5 01-08-2011 00:51:03 9.4 C 7.6 g/m*3 9.4 C 0 km/h
6 01-08-2011 01:03:03 9.2 C 7.5 g/m*3 9.2 C 0 km/h
7 01-08-2011 01:15:03 9 C 7.41 g/m*3 9 C 0 km/h
8 01-08-2011 01:27:03 9.3 C 7.73 g/m*3 9.3 C 0 km/h
9 01-08-2011 01:39:03 9.3 C 7.73 g/m*3 9.3 C 0 km/h
10 01-08-2011 01:51:03 8.9 C 7.62 g/m*3 8.9 C 0 km/h
11 01-08-2011 02:03:03 8.7 C 7.52 g/m*3 8.7 C 0 km/h
12 01-08-2011 02:15:04 8.5 C 7.43 g/m*3 8.5 C 0 km/h
13 01-08-2011 02:27:04 8.4 C 7.38 g/m*3 8.4 C 0 km/h
14 01-08-2011 02:39:04 8.3 C 7.33 g/m*3 8.3 C 0 km/h
15 01-08-2011 02:51:04 8.2 C 7.29 g/m*3 8.2 C 0 km/h
16 01-08-2011 03:03:04 8.1 C 7.24 g/m*3 8.1 C 0 km/h
17 01-08-2011 03:15:04 8 C 7.19 g/m*3 8 C 0 km/h
18 01-08-2011 03:27:04 8 C 7.28 g/m*3 8 C 0 km/h
19 01-08-2011 03:39:04 8.1 C 7.32 g/m*3 8.1 C 0 km/h
20 01-08-2011 03:51:04 7.8 C 7.26 g/m*3 7.8 C 0 km/h
21 01-08-2011 04:03:04 7.6 C 7.17 g/m*3 7.6 C 0 km/h
22 01-08-2011 04:15:04 7.7 C 7.22 g/m*3 7.7 C 0 km/h
23 01-08-2011 04:27:04 7.8 C 7.26 g/m*3 7.8 C 0 km/h
24 01-08-2011 04:39:04 7.5 C 7.12 g/m*3 7.5 C 0 km/h
25 01-08-2011 04:51:04 7.4 C 7.08 g/m*3 7.4 C 0 km/h
Sensor: Nr:Datum:Temp:Abs-Feuchte:Windchill:Wind:
Aussen-T/F 26 01-08-2011 05:03:04 7.3 C 7.03 g/m*3 7.3 C 0 km/h
27 01-08-2011 05:15:04 7.2 C 6.99 g/m*3 7.2 C 0 km/h
28 01-08-2011 05:27:04 7.2 C 6.99 g/m*3 7.2 C 0 km/h
29 01-08-2011 05:39:05 7.1 C 6.94 g/m*3 7.1 C 0 km/h
30 01-08-2011 05:51:05 7.3 C 7.03 g/m*3 7.3 C 0 km/h
31 01-08-2011 06:03:05 7.1 C 6.94 g/m*3 7.1 C 0 km/h
32 01-08-2011 06:15:05 7.3 C 7.03 g/m*3 7.3 C 0 km/h
33 01-08-2011 06:27:05 7.4 C 7.16 g/m*3 7.4 C 0 km/h
34 01-08-2011 06:39:05 7.4 C 7.16 g/m*3 7.4 C 0 km/h
35 01-08-2011 06:51:05 7.7 C 7.3 g/m*3 7.7 C 0 km/h
36 01-08-2011 07:03:05 8.2 C 7.45 g/m*3 8.2 C 0 km/h
37 01-08-2011 07:15:02 8.6 C 7.73 g/m*3 8.6 C 0 km/h
38 01-08-2011 07:27:02 8.6 C 7.73 g/m*3 8.6 C 0 km/h
39 01-08-2011 07:39:02 8.9 C 7.88 g/m*3 8.9 C 0 km/h
40 01-08-2011 07:51:02 9.3 C 8 g/m*3 9.3 C 0 km/h
41 01-08-2011 08:03:01 9.3 C 8 g/m*3 9.3 C 0 km/h
42 01-08-2011 08:15:02 9.6 C 8.06 g/m*3 9.6 C 0 km/h
43 01-08-2011 08:27:02 9.8 C 8.07 g/m*3 9.8 C 0 km/h
44 01-08-2011 08:39:02 10.2 C 8.09 g/m*3 10.2 C 0 km/h
45 01-08-2011 08:51:02 10.9 C 8.36 g/m*3 10.9 C 0 km/h
46 01-08-2011 09:03:01 11.1 C 8.16 g/m*3 11.1 C 0 km/h
47 01-08-2011 09:15:01 11.1 C 7.96 g/m*3 11.1 C 0 km/h
48 01-08-2011 09:27:01 11.2 C 8.11 g/m*3 11.2 C 0 km/h
49 01-08-2011 09:39:02 11.5 C 8.26 g/m*3 11.5 C 0 km/h
50 01-08-2011 09:51:02 12 C 8.31 g/m*3 12 C 0 km/h
Sensor: Nr:Datum:Temp:Abs-Feuchte:Windchill:Wind:
Aussen-T/F 51 01-08-2011 10:03:02 12.7 C 8.57 g/m*3 12.7 C 0 km/h
52 01-08-2011 10:15:02 13.5 C 8.66 g/m*3 13.5 C 0 km/h
53 01-08-2011 10:27:02 14.2 C 8.43 g/m*3 14.2 C 0 km/h
54 01-08-2011 10:39:02 14.7 C 8.69 g/m*3 14.7 C 0 km/h
55 01-08-2011 10:51:02 15.4 C 8.67 g/m*3 15.4 C 0 km/h
56 01-08-2011 11:03:01 16.4 C 8.51 g/m*3 16.4 C 0 km/h
57 01-08-2011 11:15:02 17.9 C 8.24 g/m*3 17.9 C 0 km/h
58 01-08-2011 11:27:03 18.6 C 7.8 g/m*3 18.6 C 0 km/h
59 01-08-2011 11:39:01 19 C 7.66 g/m*3 19 C 0 km/h
60 01-08-2011 11:51:02 20.1 C 7.65 g/m*3 20.1 C 0 km/h
61 01-08-2011 12:03:01 19.6 C 7.6 g/m*3 19.6 C 0 km/h
62 01-08-2011 12:15:02 19.8 C 8.37 g/m*3 19.8 C 0 km/h
63 01-08-2011 12:27:02 19.4 C 7.84 g/m*3 19.4 C 0 km/h
64 01-08-2011 12:39:01 19.4 C 8.01 g/m*3 19.4 C 0 km/h
65 01-08-2011 12:51:03 19.9 C 8.08 g/m*3 19.9 C 0 km/h
66 01-08-2011 13:03:02 20.4 C 8.14 g/m*3 20.4 C 0 km/h
67 01-08-2011 13:15:02 20.7 C 8.1 g/m*3 20.7 C 0 km/h
68 01-08-2011 13:27:02 21.2 C 7.97 g/m*3 21.2 C 0 km/h
69 01-08-2011 13:39:03 22.5 C 8.19 g/m*3 22.5 C 0 km/h
70 01-08-2011 13:51:02 26.3 C 7.43 g/m*3 26.3 C 0 km/h
71 01-08-2011 14:03:01 28.6 C 7.31 g/m*3 28.6 C 0 km/h
72 01-08-2011 14:15:02 24.1 C 7.22 g/m*3 24.1 C 0 km/h
73 01-08-2011 14:27:02 27.2 C 8.07 g/m*3 27.2 C 0 km/h
74 01-08-2011 14:39:02 27.4 C 7.37 g/m*3 27.4 C 0 km/h
75 01-08-2011 14:51:01 28.1 C 7.11 g/m*3 28.1 C 0 km/h
Sensor: Nr:Datum:Temp:Abs-Feuchte:Windchill:Wind:
Aussen-T/F 76 01-08-2011 15:03:02 28.1 C 6.84 g/m*3 28.1 C 0 km/h
77 01-08-2011 15:15:01 28.7 C 7.35 g/m*3 28.7 C 0 km/h
78 01-08-2011 15:27:01 28.8 C 7.1 g/m*3 28.8 C 0 km/h
79 01-08-2011 15:39:01 28.9 C 6.86 g/m*3 28.9 C 0 km/h
80 01-08-2011 15:51:01 30.3 C 7.09 g/m*3 30.3 C 0 km/h
81 01-08-2011 16:03:02 30.2 C 6.74 g/m*3 30.2 C 0 km/h
82 01-08-2011 16:15:01 29.6 C 7.12 g/m*3 29.6 C 0 km/h
83 01-08-2011 16:27:01 30.6 C 6.26 g/m*3 30.6 C 0 km/h
84 01-08-2011 16:39:01 27.1 C 7.25 g/m*3 27.1 C 0 km/h
85 01-08-2011 16:51:01 28.3 C 8.29 g/m*3 28.3 C 0 km/h
86 01-08-2011 17:03:02 29.1 C 7.51 g/m*3 29.1 C 0 km/h
87 01-08-2011 17:15:02 27.8 C 8.61 g/m*3 27.8 C 0 km/h
88 01-08-2011 17:27:02 28.3 C 7.74 g/m*3 28.3 C 0 km/h
89 01-08-2011 17:39:01 29.2 C 8.42 g/m*3 29.2 C 0 km/h
90 01-08-2011 17:51:02 30 C 6.97 g/m*3 30 C 0 km/h
91 01-08-2011 18:03:02 30.3 C 7.09 g/m*3 30.3 C 0 km/h
92 01-08-2011 18:15:01 29.7 C 7.16 g/m*3 29.7 C 0 km/h
93 01-08-2011 18:27:01 28.6 C 8.43 g/m*3 28.6 C 0 km/h
94 01-08-2011 18:39:02 29.5 C 7.97 g/m*3 29.5 C 0 km/h
95 01-08-2011 18:51:02 30.5 C 7.17 g/m*3 30.5 C 0 km/h
96 01-08-2011 19:03:02 29.4 C 6.75 g/m*3 29.4 C 0 km/h
97 01-08-2011 19:15:02 28.5 C 6.99 g/m*3 28.5 C 0 km/h
98 01-08-2011 19:27:02 28.8 C 7.67 g/m*3 28.8 C 0 km/h
99 01-08-2011 19:39:02 26.9 C 9.21 g/m*3 26.9 C 0 km/h
100 01-08-2011 19:51:02 24.5 C 9.62 g/m*3 24.5 C 0 km/h
Sensor: Nr:Datum:Temp:Abs-Feuchte:Windchill:Wind:
Aussen-T/F 101 01-08-2011 20:03:02 22.9 C 10.22 g/m*3 22.9 C 0 km/h
102 01-08-2011 20:15:02 22.1 C 10.15 g/m*3 22.1 C 0 km/h
103 01-08-2011 20:27:02 21.2 C 10.01 g/m*3 21.2 C 0 km/h
104 01-08-2011 20:39:02 20.5 C 9.96 g/m*3 20.5 C 0 km/h
105 01-08-2011 20:51:01 19.9 C 9.97 g/m*3 19.9 C 0 km/h
106 01-08-2011 21:03:01 19.3 C 9.79 g/m*3 19.3 C 0 km/h
107 01-08-2011 21:15:01 19 C 9.61 g/m*3 19 C 0 km/h
108 01-08-2011 21:27:01 18.5 C 9.81 g/m*3 18.5 C 0 km/h
109 01-08-2011 21:39:01 18.1 C 9.58 g/m*3 18.1 C 0 km/h
110 01-08-2011 21:51:01 17.7 C 9.96 g/m*3 17.7 C 0 km/h
111 01-08-2011 22:04:02 17.7 C 9.96 g/m*3 17.7 C 0 km/h
112 01-08-2011 22:16:02 17.3 C 10.02 g/m*3 17.3 C 0 km/h
113 01-08-2011 22:28:02 16.6 C 9.75 g/m*3 16.6 C 0 km/h
114 01-08-2011 22:40:02 16.2 C 9.79 g/m*3 16.2 C 0 km/h
115 01-08-2011 22:52:02 16.1 C 10.14 g/m*3 16.1 C 0 km/h
116 01-08-2011 23:04:02 15.8 C 10.23 g/m*3 15.8 C 0 km/h
117 01-08-2011 23:16:02 15.3 C 9.92 g/m*3 15.3 C 0 km/h
118 01-08-2011 23:28:02 15 C 10 g/m*3 15 C 0 km/h
119 01-08-2011 23:40:02 15.2 C 10.25 g/m*3 15.2 C 0 km/h
120 01-08-2011 23:52:02 14.6 C 10.01 g/m*3 14.6 C 0 km/h

Legende:
   Min
   Max


Maximal/Minimal-Werte vom 01.08.2011 - 01.08.2011

Sensor Min Max Avg
Temp
(Aussen-T/F)
7.1 °C
01-08-2011  05:39:05
30.6 °C
01-08-2011  16:27:01
16.89 °C
Abs-Feuchte
(Aussen-T/F)
6.26 g/m*3
01-08-2011  16:27:01
10.25 g/m*3
01-08-2011  23:40:02
7.96 g/m*3
Windchill
(Aussen-T/F)
7.1 C
01-08-2011  05:39:05
30.6 C
01-08-2011  16:27:01
16.75 C

Die Daten stammen von einer Davis Vantage Pro 2 Wetter-Station und werden unter Linux mit der Software wview2wettercgi und aufbereitet. Alle Angaben erfolgen ohne Gewähr für ihre Vollständigkeit oder Richtigkeit.
Kontakt: Rainer Krienke krienke@uni-koblenz.de . Meine Webseiten an der Uni Koblenz oder privat.
Version: $Revision: 0.78 $